Time;durP1;ratioP1;P1;durP2;ratioP2;P2;SDS_P1;SDS_P2;PMS_P1;PMS_P2;Temp;Humidity;BMP_temperature;BMP_pressure;BME280_temperature;BME280_humidity;BME280_pressure;Samples;Min_cycle;Max_cycle;Signal;HPM_P1;HPM_P2
2021/09/01 00:00:18;;;;;;;33.92;17.45;;;13.70;99.90;;;;;;5074113;28;20036;-70
2021/09/01 00:02:44;;;;;;;37.75;18.65;;;13.80;99.90;;;;;;5073952;28;20036;-70
2021/09/01 00:05:10;;;;;;;33.63;17.50;;;13.80;99.90;;;;;;5072253;28;20028;-70
2021/09/01 00:07:36;;;;;;;33.13;18.20;;;13.90;99.90;;;;;;5072117;28;20041;-70
2021/09/01 00:10:04;;;;;;;39.20;17.75;;;14.00;99.90;;;;;;5073357;28;20052;-70
2021/09/01 00:12:29;;;;;;;31.17;16.58;;;14.00;99.90;;;;;;5072758;28;20027;-70
2021/09/01 00:14:55;;;;;;;32.20;17.55;;;14.00;99.90;;;;;;5072500;28;20437;-70
2021/09/01 00:17:21;;;;;;;37.47;17.13;;;14.10;99.90;;;;;;5073604;28;20025;-70
2021/09/01 00:19:46;;;;;;;36.17;18.15;;;14.10;99.90;;;;;;5073585;28;20025;-70
2021/09/01 00:22:12;;;;;;;35.95;17.75;;;14.10;99.90;;;;;;5073260;28;20028;-69
2021/09/01 00:24:38;;;;;;;35.92;17.83;;;14.10;99.90;;;;;;5073821;28;20359;-70
2021/09/01 00:27:03;;;;;;;40.08;18.42;;;14.10;99.90;;;;;;5073741;28;20378;-70
2021/09/01 00:29:29;;;;;;;36.83;18.23;;;14.20;99.90;;;;;;5073492;28;20016;-70
2021/09/01 00:31:54;;;;;;;34.30;18.50;;;14.20;99.90;;;;;;5073742;28;20393;-70
2021/09/01 00:34:20;;;;;;;34.40;18.33;;;14.20;99.90;;;;;;5073696;28;20028;-70
2021/09/01 00:36:45;;;;;;;35.78;17.23;;;14.20;99.90;;;;;;5073689;28;20100;-69
2021/09/01 00:39:11;;;;;;;32.75;17.35;;;14.20;99.90;;;;;;5073389;28;20358;-70
2021/09/01 00:41:37;;;;;;;40.92;19.05;;;14.30;99.90;;;;;;5073397;28;20418;-70
2021/09/01 00:44:20;;;;;;;34.83;18.42;;;14.30;99.90;;;;;;5073094;28;20028;-70
2021/09/01 00:46:47;;;;;;;35.08;17.95;;;14.30;99.90;;;;;;5073547;28;20027;-70
2021/09/01 00:49:14;;;;;;;35.53;17.88;;;14.30;99.90;;;;;;5073578;28;20029;-70
2021/09/01 00:51:42;;;;;;;34.42;17.33;;;14.30;99.90;;;;;;5073541;28;20100;-70
2021/09/01 00:54:13;;;;;;;37.80;16.65;;;14.40;99.90;;;;;;5073237;28;20024;-70
2021/09/01 00:56:42;;;;;;;33.45;16.90;;;14.40;99.90;;;;;;5072940;28;20063;-70
2021/09/01 00:59:07;;;;;;;39.25;15.75;;;14.40;99.90;;;;;;5071666;28;20120;-70
2021/09/01 01:01:35;;;;;;;32.97;15.85;;;14.40;99.90;;;;;;5072021;28;20095;-70
2021/09/01 01:04:01;;;;;;;38.42;16.13;;;14.40;99.90;;;;;;5073124;28;20355;-70
2021/09/01 01:06:29;;;;;;;31.98;14.85;;;14.40;99.90;;;;;;5071797;28;20052;-70
2021/09/01 01:08:54;;;;;;;28.98;15.38;;;14.40;99.90;;;;;;5073418;28;20021;-70
2021/09/01 01:11:21;;;;;;;28.48;15.25;;;14.40;99.90;;;;;;5073363;28;20362;-70
2021/09/01 01:13:47;;;;;;;34.20;15.48;;;14.40;99.90;;;;;;5073842;28;20031;-70
2021/09/01 01:16:17;;;;;;;33.83;15.02;;;14.40;99.90;;;;;;5076939;28;20027;-70
2021/09/01 01:18:46;;;;;;;37.35;16.13;;;14.40;99.90;;;;;;5075462;28;20107;-70
2021/09/01 01:21:15;;;;;;;31.50;15.48;;;14.50;99.90;;;;;;5074985;28;20390;-70
2021/09/01 01:23:41;;;;;;;32.75;15.50;;;14.50;99.90;;;;;;5076770;28;20090;-70
2021/09/01 01:26:07;;;;;;;37.42;15.05;;;14.50;99.90;;;;;;5076705;28;20024;-70
2021/09/01 01:28:32;;;;;;;33.70;15.60;;;14.50;99.90;;;;;;5075025;28;20154;-70
2021/09/01 01:30:58;;;;;;;32.63;15.25;;;14.50;99.90;;;;;;5076400;28;20017;-70
2021/09/01 01:33:24;;;;;;;30.92;15.57;;;14.50;99.90;;;;;;5076658;28;20480;-70
2021/09/01 01:35:49;;;;;;;30.08;15.63;;;14.50;99.90;;;;;;5075202;28;20041;-70
2021/09/01 01:38:17;;;;;;;36.33;16.48;;;14.50;99.90;;;;;;5076572;28;20070;-70
2021/09/01 01:40:44;;;;;;;33.15;16.02;;;14.50;99.90;;;;;;5076261;28;20056;-70
2021/09/01 01:43:10;;;;;;;27.02;15.25;;;14.50;99.90;;;;;;5075482;28;20020;-70
2021/09/01 01:45:40;;;;;;;30.27;14.13;;;14.60;99.90;;;;;;5076451;28;20462;-70
2021/09/01 01:48:07;;;;;;;32.42;14.68;;;14.60;99.90;;;;;;5076396;28;20021;-70
2021/09/01 01:50:34;;;;;;;40.58;15.80;;;14.60;99.90;;;;;;5076359;28;20051;-70
2021/09/01 01:52:59;;;;;;;32.50;15.75;;;14.50;99.90;;;;;;5076265;28;20149;-70
2021/09/01 01:55:26;;;;;;;29.98;15.32;;;14.50;99.90;;;;;;5075706;28;20051;-70
2021/09/01 01:57:51;;;;;;;31.25;16.80;;;14.60;99.90;;;;;;5076186;28;20492;-70
2021/09/01 02:00:17;;;;;;;31.23;15.93;;;14.60;99.90;;;;;;5074984;28;20029;-70
2021/09/01 02:02:43;;;;;;;32.00;14.57;;;14.60;99.90;;;;;;5076109;28;20103;-69
2021/09/01 02:05:09;;;;;;;36.17;15.25;;;14.60;99.90;;;;;;5075801;28;20409;-70
2021/09/01 02:07:36;;;;;;;28.25;15.23;;;14.50;99.90;;;;;;5075369;28;20037;-70
2021/09/01 02:10:01;;;;;;;29.23;14.80;;;14.50;99.90;;;;;;5075950;28;20115;-70
2021/09/01 02:12:29;;;;;;;33.40;15.45;;;14.50;99.90;;;;;;5075908;28;20104;-70
2021/09/01 02:14:56;;;;;;;32.50;14.90;;;14.60;99.90;;;;;;5075580;28;20371;-70
2021/09/01 02:17:22;;;;;;;31.73;15.23;;;14.60;99.90;;;;;;5074666;28;20481;-70
2021/09/01 02:19:47;;;;;;;35.83;14.68;;;14.60;99.90;;;;;;5075765;28;20025;-70
2021/09/01 02:22:13;;;;;;;31.23;14.45;;;14.60;99.90;;;;;;5075725;28;20032;-70
2021/09/01 02:24:38;;;;;;;30.58;14.82;;;14.60;99.90;;;;;;5075646;28;20078;-70
2021/09/01 02:27:04;;;;;;;36.63;15.98;;;14.60;99.90;;;;;;5074090;28;20021;-70
2021/09/01 02:29:29;;;;;;;29.95;14.43;;;14.60;99.90;;;;;;5075547;28;20378;-70
2021/09/01 02:31:55;;;;;;;32.40;14.98;;;14.60;99.90;;;;;;5075241;28;20025;-70
2021/09/01 02:34:20;;;;;;;33.38;14.48;;;14.60;99.90;;;;;;5074038;28;20031;-70
2021/09/01 02:36:46;;;;;;;24.50;14.35;;;14.60;99.90;;;;;;5075431;28;20166;-69
2021/09/01 02:39:11;;;;;;;33.22;14.95;;;14.60;99.90;;;;;;5075354;28;20032;-70
2021/09/01 02:41:37;;;;;;;24.27;13.20;;;14.70;99.90;;;;;;5075350;28;20036;-70
2021/09/01 02:44:03;;;;;;;28.38;14.45;;;14.60;99.90;;;;;;5073807;28;20462;-70
2021/09/01 02:46:28;;;;;;;31.20;14.18;;;14.70;99.90;;;;;;5074583;28;20033;-70
2021/09/01 02:48:54;;;;;;;30.67;13.80;;;14.60;99.90;;;;;;5073463;28;20115;-70
2021/09/01 02:51:19;;;;;;;27.00;14.07;;;14.60;99.90;;;;;;5073406;28;20024;-71
2021/09/01 02:53:45;;;;;;;32.55;14.25;;;14.60;99.90;;;;;;5075106;28;20343;-70
2021/09/01 02:56:11;;;;;;;31.55;15.27;;;14.60;99.90;;;;;;5073852;28;20481;-70
2021/09/01 02:58:36;;;;;;;31.80;14.05;;;14.60;99.90;;;;;;5074031;28;20035;-70
2021/09/01 03:01:02;;;;;;;23.77;13.77;;;14.70;99.90;;;;;;5074962;28;20104;-70
2021/09/01 03:03:27;;;;;;;24.75;13.68;;;14.70;99.90;;;;;;5074911;28;20550;-70
2021/09/01 03:05:53;;;;;;;32.63;13.55;;;14.70;99.90;;;;;;5074538;28;20374;-70
2021/09/01 03:08:18;;;;;;;29.27;14.82;;;14.70;99.90;;;;;;5074784;28;20102;-70
2021/09/01 03:10:44;;;;;;;31.45;14.88;;;14.70;99.90;;;;;;5072954;28;20028;-70
2021/09/01 03:13:09;;;;;;;24.67;14.07;;;14.70;99.90;;;;;;5074020;28;20025;-71
2021/09/01 03:15:35;;;;;;;31.80;14.95;;;14.70;99.90;;;;;;5072864;28;20032;-70
2021/09/01 03:18:00;;;;;;;22.95;13.77;;;14.70;99.90;;;;;;5073153;28;20028;-69
2021/09/01 03:20:26;;;;;;;27.25;14.60;;;14.70;99.90;;;;;;5074561;28;20028;-70
2021/09/01 03:22:52;;;;;;;27.10;14.00;;;14.70;99.90;;;;;;5074531;28;20036;-69
2021/09/01 03:25:17;;;;;;;26.25;13.15;;;14.70;99.90;;;;;;5073936;28;20564;-69
2021/09/01 03:27:43;;;;;;;29.83;13.68;;;14.60;99.90;;;;;;5074428;28;20082;-69
2021/09/01 03:30:09;;;;;;;28.08;14.30;;;14.60;99.90;;;;;;5074169;28;20376;-70
2021/09/01 03:32:35;;;;;;;27.38;13.85;;;14.60;99.90;;;;;;5073892;28;20028;-69
2021/09/01 03:35:00;;;;;;;22.45;13.13;;;14.60;99.90;;;;;;5074381;28;20037;-71
2021/09/01 03:37:26;;;;;;;25.33;13.35;;;14.70;99.90;;;;;;5073949;28;20020;-70
2021/09/01 03:39:52;;;;;;;26.10;12.75;;;14.70;99.90;;;;;;5074327;28;20048;-70
2021/09/01 03:42:18;;;;;;;33.55;12.40;;;14.70;99.90;;;;;;5073026;28;20032;-70
2021/09/01 03:44:43;;;;;;;20.27;13.60;;;14.60;99.90;;;;;;5073964;28;20039;-69
2021/09/01 03:47:09;;;;;;;23.92;12.07;;;14.60;99.90;;;;;;5074147;28;20024;-70
2021/09/01 03:49:35;;;;;;;26.55;13.02;;;14.70;99.90;;;;;;5073641;28;20060;-70
2021/09/01 03:52:00;;;;;;;26.92;13.55;;;14.60;99.90;;;;;;5072467;28;20024;-70
2021/09/01 03:54:27;;;;;;;26.85;13.98;;;14.60;99.90;;;;;;5056173;28;20027;-70
2021/09/01 03:56:52;;;;;;;26.83;13.23;;;14.60;99.90;;;;;;5072946;28;20020;-70
2021/09/01 03:59:18;;;;;;;24.92;12.82;;;14.60;99.90;;;;;;5073829;28;20033;-70
2021/09/01 04:01:43;;;;;;;27.95;14.23;;;14.60;99.90;;;;;;5074039;28;20033;-69
2021/09/01 04:04:09;;;;;;;28.25;12.38;;;14.60;99.90;;;;;;5074022;28;20028;-70
2021/09/01 04:06:34;;;;;;;22.83;11.32;;;14.60;99.90;;;;;;5073537;28;20044;-70
2021/09/01 04:09:00;;;;;;;24.10;12.43;;;14.60;99.90;;;;;;5073699;28;20021;-70
2021/09/01 04:11:26;;;;;;;30.67;12.50;;;14.60;99.90;;;;;;5072172;28;20539;-70
2021/09/01 04:13:53;;;;;;;24.00;12.23;;;14.60;99.90;;;;;;5073952;28;20052;-69
2021/09/01 04:16:18;;;;;;;26.00;11.52;;;14.50;99.90;;;;;;5072918;28;20032;-70
2021/09/01 04:18:44;;;;;;;24.70;12.80;;;14.50;99.90;;;;;;5073945;28;20028;-70
2021/09/01 04:21:09;;;;;;;24.02;11.65;;;14.50;99.90;;;;;;5073868;28;20025;-70
2021/09/01 04:23:35;;;;;;;27.80;12.27;;;14.50;99.90;;;;;;5073822;28;20028;-70
2021/09/01 04:26:02;;;;;;;27.60;11.80;;;14.50;99.90;;;;;;5073726;28;20188;-70
2021/09/01 04:28:27;;;;;;;29.02;11.90;;;14.50;99.90;;;;;;5073812;28;20373;-70
2021/09/01 04:30:53;;;;;;;23.20;10.65;;;14.50;99.90;;;;;;5072604;28;20021;-70
2021/09/01 04:33:18;;;;;;;25.02;11.75;;;14.50;99.90;;;;;;5073486;28;20032;-70
2021/09/01 04:35:44;;;;;;;19.55;11.18;;;14.50;99.90;;;;;;5071960;28;20029;-70
2021/09/01 04:38:10;;;;;;;22.35;11.52;;;14.40;99.90;;;;;;5071868;28;20530;-70
2021/09/01 04:40:35;;;;;;;32.50;12.25;;;14.40;99.90;;;;;;5073413;28;20027;-70
2021/09/01 04:43:01;;;;;;;31.00;12.63;;;14.40;99.90;;;;;;5073639;28;20032;-70
2021/09/01 04:45:26;;;;;;;25.85;12.27;;;14.40;99.90;;;;;;5073631;28;20352;-70
2021/09/01 04:47:52;;;;;;;29.52;11.43;;;14.40;99.90;;;;;;5073540;28;20028;-70
2021/09/01 04:50:18;;;;;;;24.30;11.88;;;14.50;99.90;;;;;;5076865;28;20043;-70
2021/09/01 04:52:43;;;;;;;25.77;11.85;;;14.40;99.90;;;;;;5076818;28;20028;-70
2021/09/01 04:55:09;;;;;;;24.13;11.75;;;14.40;99.90;;;;;;5077090;28;20055;-70
2021/09/01 04:57:35;;;;;;;28.70;11.52;;;14.40;99.90;;;;;;5077051;28;20053;-70
2021/09/01 05:00:02;;;;;;;27.95;12.38;;;14.40;99.90;;;;;;5077265;28;20031;-70
2021/09/01 05:02:27;;;;;;;29.50;12.45;;;14.50;99.90;;;;;;5077241;28;20059;-70
2021/09/01 05:04:53;;;;;;;27.90;11.48;;;14.50;99.90;;;;;;5077171;28;20059;-70
2021/09/01 05:07:18;;;;;;;27.10;11.38;;;14.50;99.90;;;;;;5076516;28;20506;-70
2021/09/01 05:09:44;;;;;;;24.35;11.00;;;14.50;99.90;;;;;;5077105;28;20029;-70
2021/09/01 05:12:10;;;;;;;16.88;10.23;;;14.50;99.90;;;;;;5077013;28;20121;-70
2021/09/01 05:14:36;;;;;;;19.10;11.05;;;14.50;99.90;;;;;;5075198;28;20107;-70
2021/09/01 05:17:01;;;;;;;18.08;9.68;;;14.50;99.90;;;;;;5076687;28;20173;-70
2021/09/01 05:19:27;;;;;;;23.35;11.15;;;14.50;99.90;;;;;;5076626;28;20025;-70
2021/09/01 05:21:55;;;;;;;23.02;11.43;;;14.50;99.90;;;;;;5076877;28;20035;-69
2021/09/01 05:24:46;;;;;;;22.08;10.18;;;14.60;99.90;;;;;;5076309;28;20523;-70
2021/09/01 05:27:18;;;;;;;19.17;9.68;;;14.60;99.90;;;;;;5076426;28;20033;-69
2021/09/01 05:29:45;;;;;;;25.83;10.35;;;14.60;99.90;;;;;;5076494;28;20012;-70
2021/09/01 05:32:19;;;;;;;17.75;9.77;;;14.60;99.90;;;;;;5076135;28;20017;-70
2021/09/01 05:34:46;;;;;;;20.38;9.85;;;14.60;99.90;;;;;;5074894;28;20021;-69
2021/09/01 05:37:13;;;;;;;25.75;11.27;;;14.60;99.90;;;;;;5073270;28;20089;-70
2021/09/01 05:39:42;;;;;;;19.70;10.70;;;14.60;99.90;;;;;;5074548;28;20025;-70
2021/09/01 05:42:10;;;;;;;25.40;10.55;;;14.60;99.90;;;;;;5074067;28;20024;-69
2021/09/01 05:44:36;;;;;;;21.42;10.70;;;14.60;99.90;;;;;;5075131;28;20028;-69
2021/09/01 05:47:02;;;;;;;29.88;11.70;;;14.70;99.90;;;;;;5074160;28;20048;-71
2021/09/01 05:49:29;;;;;;;23.60;12.13;;;14.70;99.90;;;;;;5074059;28;20024;-71
2021/09/01 05:51:56;;;;;;;28.05;11.38;;;14.60;99.90;;;;;;5074607;28;20036;-71
2021/09/01 05:54:21;;;;;;;26.60;11.65;;;14.70;99.90;;;;;;5074838;28;20032;-71
2021/09/01 05:56:51;;;;;;;28.15;12.05;;;14.70;99.90;;;;;;5057727;28;20033;-70
2021/09/01 05:59:20;;;;;;;31.80;12.13;;;14.70;99.90;;;;;;5063685;28;20082;-71
2021/09/01 06:01:57;;;;;;;24.25;11.27;;;14.70;99.90;;;;;;5056971;28;20043;-70
2021/09/01 06:04:28;;;;;;;26.38;12.25;;;14.70;99.90;;;;;;5075300;28;20017;-71
2021/09/01 06:06:57;;;;;;;24.55;12.30;;;14.80;99.90;;;;;;5069697;28;20051;-70
2021/09/01 06:09:23;;;;;;;26.60;11.48;;;14.80;99.90;;;;;;5073779;28;20036;-71
2021/09/01 06:11:51;;;;;;;28.67;12.63;;;14.90;99.90;;;;;;5074620;28;20028;-71
2021/09/01 06:14:17;;;;;;;24.23;12.80;;;14.90;99.90;;;;;;5072568;28;20021;-71
2021/09/01 06:16:42;;;;;;;31.25;12.75;;;14.90;99.90;;;;;;5071805;28;20101;-70
2021/09/01 06:19:08;;;;;;;30.25;12.52;;;14.90;99.90;;;;;;5071522;28;20485;-70
2021/09/01 06:21:34;;;;;;;29.80;12.13;;;14.90;99.90;;;;;;5073872;28;20391;-71
2021/09/01 06:24:00;;;;;;;29.92;12.60;;;15.00;99.90;;;;;;5073290;28;20067;-70
2021/09/01 06:26:25;;;;;;;27.92;12.55;;;15.00;99.90;;;;;;5073453;28;20031;-71
2021/09/01 06:28:51;;;;;;;27.10;12.40;;;15.10;99.90;;;;;;5072316;28;20056;-71
2021/09/01 06:31:16;;;;;;;28.10;12.25;;;15.00;99.90;;;;;;5072719;28;20103;-70
2021/09/01 06:33:42;;;;;;;28.23;12.43;;;15.00;99.90;;;;;;5071310;28;20488;-70
2021/09/01 06:36:08;;;;;;;32.70;13.32;;;15.00;99.90;;;;;;5072553;28;20029;-70
2021/09/01 06:38:33;;;;;;;29.70;13.32;;;15.10;99.90;;;;;;5072587;28;20378;-70
2021/09/01 06:40:59;;;;;;;31.00;14.30;;;15.10;99.90;;;;;;5081084;28;20020;-70
2021/09/01 06:43:24;;;;;;;32.88;13.45;;;15.10;99.90;;;;;;5053498;28;20150;-71
2021/09/01 06:45:50;;;;;;;26.25;12.77;;;15.20;99.90;;;;;;5070213;28;20112;-71
2021/09/01 06:48:16;;;;;;;27.13;13.18;;;15.20;99.90;;;;;;5067328;28;20028;-71
2021/09/01 06:50:41;;;;;;;37.00;16.30;;;15.20;99.90;;;;;;5070564;28;20024;-71
2021/09/01 06:53:08;;;;;;;29.45;14.20;;;15.30;99.90;;;;;;5072125;28;20389;-71
2021/09/01 06:55:34;;;;;;;28.38;13.75;;;15.30;99.90;;;;;;5071540;28;20025;-71
2021/09/01 06:58:00;;;;;;;30.60;13.32;;;15.30;99.90;;;;;;5074217;28;20040;-71
2021/09/01 07:00:25;;;;;;;31.75;13.82;;;15.30;99.90;;;;;;5072045;28;20035;-71
2021/09/01 07:02:51;;;;;;;23.60;13.10;;;15.30;99.90;;;;;;5079130;28;20095;-70
2021/09/01 07:05:18;;;;;;;25.35;12.32;;;15.40;99.90;;;;;;5071001;28;20028;-69
2021/09/01 07:07:44;;;;;;;28.13;12.63;;;15.50;99.90;;;;;;5038044;28;20087;-69
2021/09/01 07:10:12;;;;;;;27.10;13.40;;;15.50;99.90;;;;;;5069450;28;20020;-69
2021/09/01 07:12:38;;;;;;;24.02;11.45;;;15.60;99.90;;;;;;5070363;28;20038;-69
2021/09/01 07:15:08;;;;;;;31.50;14.43;;;15.60;99.90;;;;;;5069543;28;20478;-70
2021/09/01 07:17:35;;;;;;;24.55;12.13;;;15.70;99.90;;;;;;5071690;28;20041;-70
2021/09/01 07:20:00;;;;;;;21.80;11.50;;;15.60;99.90;;;;;;5070018;28;20104;-69
2021/09/01 07:22:26;;;;;;;24.38;11.00;;;15.70;99.90;;;;;;5071216;28;20062;-69
2021/09/01 07:24:52;;;;;;;22.45;11.02;;;15.70;99.90;;;;;;5072281;28;20466;-69
2021/09/01 07:27:17;;;;;;;22.65;10.68;;;15.70;99.90;;;;;;5073007;28;20098;-69
2021/09/01 07:29:43;;;;;;;24.52;11.35;;;15.70;99.90;;;;;;5069201;28;20481;-69
2021/09/01 07:32:08;;;;;;;18.50;10.18;;;15.70;99.90;;;;;;5072526;28;20469;-70
2021/09/01 07:34:34;;;;;;;26.35;9.85;;;15.70;99.90;;;;;;5071441;28;20028;-69
2021/09/01 07:36:59;;;;;;;21.95;10.82;;;15.80;99.90;;;;;;5071471;28;20025;-69
2021/09/01 07:39:25;;;;;;;20.33;10.32;;;15.90;99.90;;;;;;5071203;28;20039;-69
2021/09/01 07:41:50;;;;;;;16.02;9.20;;;15.90;99.90;;;;;;5070996;28;20500;-69
2021/09/01 07:44:16;;;;;;;21.92;9.68;;;16.00;99.90;;;;;;5072985;28;20495;-70
2021/09/01 07:46:41;;;;;;;20.00;9.70;;;16.00;99.90;;;;;;5071348;28;20033;-70
2021/09/01 07:49:07;;;;;;;20.90;10.10;;;16.00;99.90;;;;;;5072792;28;20024;-69
2021/09/01 07:51:32;;;;;;;18.00;9.20;;;16.00;99.90;;;;;;5071086;28;20033;-70
2021/09/01 07:53:58;;;;;;;18.17;9.07;;;16.00;99.90;;;;;;5065468;28;20031;-70
2021/09/01 07:56:23;;;;;;;17.60;9.15;;;16.10;99.90;;;;;;5071355;28;20037;-70
2021/09/01 07:58:49;;;;;;;15.15;8.73;;;16.10;99.90;;;;;;5070488;28;20024;-70
2021/09/01 08:01:15;;;;;;;17.58;8.27;;;16.10;99.90;;;;;;5074711;28;20109;-70
2021/09/01 08:03:40;;;;;;;18.30;7.35;;;16.20;99.90;;;;;;5071541;28;20481;-70
2021/09/01 08:06:07;;;;;;;18.40;7.72;;;16.10;99.90;;;;;;5071280;28;20048;-70
2021/09/01 08:08:33;;;;;;;17.17;7.82;;;16.20;99.90;;;;;;5072423;28;20021;-70
2021/09/01 08:10:59;;;;;;;20.23;8.50;;;16.20;99.90;;;;;;5072783;28;20020;-70
2021/09/01 08:13:26;;;;;;;17.30;7.78;;;16.20;99.90;;;;;;5071958;28;20078;-70
2021/09/01 08:15:51;;;;;;;14.10;6.30;;;16.10;99.90;;;;;;5071205;28;20017;-70
2021/09/01 08:18:17;;;;;;;12.57;6.50;;;16.00;99.90;;;;;;5070278;28;20303;-70
2021/09/01 08:20:43;;;;;;;14.18;6.53;;;16.00;99.90;;;;;;5071795;28;20035;-70
2021/09/01 08:23:08;;;;;;;18.80;6.53;;;16.00;99.90;;;;;;5072814;28;20055;-70
2021/09/01 08:25:34;;;;;;;18.88;8.60;;;15.90;99.90;;;;;;5077427;28;20064;-70
2021/09/01 08:28:00;;;;;;;16.23;6.82;;;15.90;99.90;;;;;;5076299;28;20086;-70
2021/09/01 08:30:26;;;;;;;15.98;7.78;;;15.90;99.90;;;;;;5074176;28;20024;-70
2021/09/01 08:32:51;;;;;;;17.85;7.70;;;15.90;99.90;;;;;;5074952;28;20025;-70
2021/09/01 08:35:17;;;;;;;17.65;9.43;;;15.80;99.90;;;;;;5075812;28;20025;-70
2021/09/01 08:37:42;;;;;;;24.80;10.70;;;15.80;99.90;;;;;;5075800;28;20025;-70
2021/09/01 08:40:08;;;;;;;21.95;11.07;;;15.80;99.90;;;;;;5076411;28;20032;-70
2021/09/01 08:42:36;;;;;;;20.85;10.77;;;15.80;99.90;;;;;;5074752;28;20041;-70
2021/09/01 08:45:02;;;;;;;25.80;10.55;;;15.80;99.90;;;;;;5053459;28;20119;-70
2021/09/01 08:47:30;;;;;;;19.00;10.35;;;15.80;99.90;;;;;;5075472;28;20036;-70
2021/09/01 08:49:57;;;;;;;23.63;10.43;;;15.80;99.90;;;;;;5075602;28;20115;-70
2021/09/01 08:52:24;;;;;;;23.95;9.82;;;15.80;99.90;;;;;;5074717;28;20073;-70
2021/09/01 08:54:50;;;;;;;21.50;9.77;;;15.80;99.90;;;;;;5077607;28;20450;-70
2021/09/01 08:57:15;;;;;;;19.38;8.35;;;15.80;99.90;;;;;;5082963;28;20083;-70
2021/09/01 08:59:41;;;;;;;19.35;8.55;;;15.80;99.90;;;;;;5081006;28;20121;-71
2021/09/01 09:02:07;;;;;;;15.10;7.93;;;15.80;99.90;;;;;;5074793;28;20025;-70
2021/09/01 09:04:35;;;;;;;22.90;9.38;;;15.90;99.90;;;;;;5075598;28;20085;-71
2021/09/01 09:07:02;;;;;;;17.58;8.80;;;15.80;99.90;;;;;;5074826;28;20041;-70
2021/09/01 09:09:31;;;;;;;16.98;9.57;;;15.70;99.90;;;;;;5076214;28;20021;-71
2021/09/01 09:11:58;;;;;;;20.92;9.57;;;15.70;99.90;;;;;;5057749;28;20412;-70
2021/09/01 09:14:28;;;;;;;20.05;9.88;;;15.70;99.90;;;;;;5074707;28;20529;-70
2021/09/01 09:17:17;;;;;;;22.23;9.60;;;15.80;99.90;;;;;;5057986;28;20040;-70
2021/09/01 09:19:49;;;;;;;17.55;10.63;;;15.80;99.90;;;;;;5075307;28;20036;-70
2021/09/01 09:22:22;;;;;;;19.38;9.90;;;15.90;99.90;;;;;;5075227;28;20031;-70
2021/09/01 09:25:13;;;;;;;20.98;10.10;;;15.80;99.90;;;;;;5072863;28;20024;-70
2021/09/01 09:27:44;;;;;;;26.80;11.27;;;15.70;99.90;;;;;;5073575;28;20032;-70
2021/09/01 09:30:29;;;;;;;20.63;10.63;;;15.80;99.90;;;;;;5075386;28;20032;-70
2021/09/01 09:33:05;;;;;;;24.58;10.20;;;15.80;99.90;;;;;;5074056;28;20124;-70
2021/09/01 09:35:59;;;;;;;17.17;10.00;;;15.70;99.90;;;;;;5073856;28;20096;-69
2021/09/01 09:38:30;;;;;;;22.48;10.02;;;15.90;99.90;;;;;;5073044;28;20501;-69
2021/09/01 09:40:55;;;;;;;19.88;9.77;;;16.10;99.90;;;;;;5087870;28;20033;-69
2021/09/01 09:43:23;;;;;;;20.15;9.52;;;16.40;99.90;;;;;;5073320;28;20023;-70
2021/09/01 09:45:58;;;;;;;21.15;10.45;;;16.50;99.90;;;;;;5074829;28;20028;-69
2021/09/01 09:48:29;;;;;;;18.17;8.90;;;16.40;99.90;;;;;;5075094;28;20106;-70
2021/09/01 09:50:55;;;;;;;23.73;9.93;;;16.50;99.90;;;;;;5074735;28;20103;-70
2021/09/01 09:56:17;;;;;;;17.08;9.30;;;16.50;99.90;;;;;;5091428;27;20368;-70
2021/09/01 09:58:46;;;;;;;23.23;10.20;;;16.80;99.90;;;;;;5103878;28;20063;-70
2021/09/01 10:01:13;;;;;;;18.83;10.38;;;16.70;99.90;;;;;;5092391;28;20016;-69
2021/09/01 10:03:39;;;;;;;34.25;13.93;;;16.70;99.90;;;;;;5106055;28;20373;-70
2021/09/01 10:06:07;;;;;;;21.50;10.95;;;16.70;99.90;;;;;;5091995;28;20028;-70
2021/09/01 10:08:35;;;;;;;21.95;10.68;;;16.90;99.90;;;;;;5102724;28;20397;-70
2021/09/01 10:11:05;;;;;;;22.08;10.05;;;16.90;99.90;;;;;;5089704;28;20020;-70
2021/09/01 10:13:32;;;;;;;21.05;9.48;;;17.20;99.90;;;;;;5085338;28;20030;-70
2021/09/01 10:16:19;;;;;;;17.42;9.82;;;17.50;99.90;;;;;;5090272;28;20020;-71
2021/09/01 10:18:48;;;;;;;20.45;9.95;;;17.80;99.90;;;;;;5087960;28;20542;-70
2021/09/01 10:21:16;;;;;;;19.45;9.60;;;18.10;99.90;;;;;;5090840;28;20043;-70
2021/09/01 10:23:45;;;;;;;23.85;9.80;;;17.90;99.90;;;;;;5089049;28;20370;-70
2021/09/01 10:26:31;;;;;;;18.40;9.60;;;17.90;99.90;;;;;;5100596;28;20071;-71
2021/09/01 10:28:59;;;;;;;14.63;9.45;;;18.20;99.90;;;;;;5110420;28;20023;-71
2021/09/01 10:31:28;;;;;;;15.60;9.50;;;18.20;99.90;;;;;;5096094;28;20038;-71
2021/09/01 10:34:01;;;;;;;18.10;9.70;;;18.40;99.90;;;;;;5087984;28;20385;-70
2021/09/01 10:39:15;;;;;;;21.35;10.77;;;17.90;99.90;;;;;;5059798;28;20366;-71
2021/09/01 10:41:41;;;;;;;;;;;17.80;99.90;;;;;;5050509;28;20021;-70
2021/09/01 10:44:18;;;;;;;22.88;11.95;;;17.30;99.90;;;;;;5048763;28;19933;-70
2021/09/01 10:46:56;;;;;;;17.48;10.90;;;17.20;99.90;;;;;;5050325;28;20541;-70
2021/09/01 10:49:25;;;;;;;22.20;11.93;;;17.40;99.90;;;;;;5049084;28;20042;-70
2021/09/01 10:51:55;;;;;;;23.13;12.10;;;17.10;99.90;;;;;;5049673;28;20021;-70
2021/09/01 10:54:30;;;;;;;26.40;12.55;;;16.90;99.90;;;;;;5050559;28;20021;-70
2021/09/01 10:56:56;;;;;;;22.58;11.75;;;16.90;99.90;;;;;;5050201;28;20363;-70
2021/09/01 10:59:25;;;;;;;25.00;12.77;;;16.90;99.90;;;;;;5049339;28;20116;-69
2021/09/01 11:02:08;;;;;;;21.27;11.50;;;16.80;99.90;;;;;;5050054;28;20029;-69
2021/09/01 11:04:34;;;;;;;26.02;12.75;;;16.60;99.90;;;;;;5065147;28;20025;-69
2021/09/01 11:07:04;;;;;;;26.58;13.32;;;16.70;99.90;;;;;;5047187;28;20087;-70
2021/09/01 11:09:29;;;;;;;26.67;13.13;;;16.60;99.90;;;;;;5037073;28;20040;-70
2021/09/01 11:11:57;;;;;;;25.55;12.27;;;16.60;99.90;;;;;;5039189;28;20434;-70
2021/09/01 11:14:35;;;;;;;25.33;12.50;;;16.50;99.90;;;;;;5043427;28;20029;-69
2021/09/01 11:17:03;;;;;;;25.92;12.20;;;16.60;99.90;;;;;;5041079;28;20025;-70
2021/09/01 11:19:29;;;;;;;20.13;11.93;;;16.60;99.90;;;;;;5046653;28;20017;-69
2021/09/01 11:21:55;;;;;;;23.77;12.73;;;16.70;99.90;;;;;;5043303;28;20018;-69
2021/09/01 11:24:21;;;;;;;25.20;14.05;;;16.60;99.90;;;;;;5042574;28;20067;-70
2021/09/01 11:26:54;;;;;;;23.58;12.60;;;16.60;99.90;;;;;;5042275;28;20054;-70
2021/09/01 11:29:28;;;;;;;26.52;13.35;;;16.60;99.90;;;;;;5045529;28;20501;-70
2021/09/01 11:31:53;;;;;;;25.13;13.18;;;16.70;99.90;;;;;;5048908;28;20372;-70
2021/09/01 11:34:19;;;;;;;23.65;12.57;;;16.90;99.90;;;;;;5041196;28;20045;-69
2021/09/01 11:36:45;;;;;;;24.17;12.75;;;16.90;99.90;;;;;;5039114;28;20053;-69
2021/09/01 11:39:11;;;;;;;20.40;12.65;;;16.90;99.90;;;;;;5040282;28;20025;-69
2021/09/01 11:41:38;;;;;;;22.80;12.15;;;17.00;99.90;;;;;;5036755;28;20025;-70
2021/09/01 11:44:08;;;;;;;22.45;13.07;;;17.10;99.90;;;;;;5043095;28;20032;-70
2021/09/01 11:46:36;;;;;;;24.80;13.20;;;17.30;99.90;;;;;;5049038;28;20057;-70
2021/09/01 11:49:04;;;;;;;24.38;12.63;;;17.40;99.90;;;;;;5015118;28;20026;-70
2021/09/01 11:51:30;;;;;;;27.10;13.32;;;17.40;99.90;;;;;;5034933;28;20017;-70
2021/09/01 11:53:58;;;;;;;25.52;13.45;;;17.60;99.90;;;;;;5018033;28;20079;-70
2021/09/01 11:56:24;;;;;;;26.45;13.52;;;17.70;99.90;;;;;;5035200;28;20479;-71
2021/09/01 11:59:06;;;;;;;21.10;12.43;;;17.60;99.90;;;;;;5027639;28;20033;-70
2021/09/01 12:01:44;;;;;;;22.43;12.23;;;17.80;99.90;;;;;;5034924;28;20033;-70
2021/09/01 12:04:11;;;;;;;24.02;12.02;;;17.90;99.90;;;;;;5028333;28;20120;-70
2021/09/01 12:06:40;;;;;;;24.00;11.65;;;18.00;99.90;;;;;;5015652;28;20192;-69
2021/09/01 12:09:10;;;;;;;21.83;11.35;;;18.00;99.90;;;;;;5034218;28;20107;-69
2021/09/01 12:11:36;;;;;;;20.00;11.50;;;18.30;99.90;;;;;;5024471;28;20515;-69
2021/09/01 12:14:06;;;;;;;18.95;11.07;;;18.50;99.90;;;;;;5018148;28;20438;-70
2021/09/01 12:16:33;;;;;;;19.10;10.52;;;18.50;99.90;;;;;;5029681;28;20045;-69
2021/09/01 12:19:03;;;;;;;25.98;11.98;;;18.50;99.90;;;;;;5001258;28;20505;-70
2021/09/01 12:21:53;;;;;;;25.63;12.02;;;18.20;99.90;;;;;;5029110;28;20032;-69
2021/09/01 12:24:26;;;;;;;22.30;11.70;;;18.10;99.90;;;;;;5022269;28;20021;-68
2021/09/01 12:27:10;;;;;;;21.83;12.25;;;18.20;99.90;;;;;;5033674;28;20017;-69
2021/09/01 12:32:17;;;;;;;16.33;8.48;;;18.50;99.90;;;;;;5069853;28;20754;-68
2021/09/01 12:34:45;;;;;;;19.52;8.10;;;18.50;99.90;;;;;;5052260;28;20037;-70
2021/09/01 12:37:20;;;;;;;15.80;8.13;;;18.70;99.90;;;;;;5068647;28;20490;-71